sensor_id;sensor_type;location;lat;lon;timestamp;P1;durP1;ratioP1;P2;durP2;ratioP2
69053;SDS011;56125;52.242;4.756;2023-08-06T00:00:03;2.58;;;2.00;;
69053;SDS011;56125;52.242;4.756;2023-08-06T00:05:05;2.30;;;2.03;;
69053;SDS011;56125;52.242;4.756;2023-08-06T00:10:06;2.80;;;2.15;;
69053;SDS011;56125;52.242;4.756;2023-08-06T00:15:08;2.92;;;1.95;;
69053;SDS011;56125;52.242;4.756;2023-08-06T00:20:09;3.28;;;2.00;;
69053;SDS011;56125;52.242;4.756;2023-08-06T00:25:11;2.45;;;1.85;;
69053;SDS011;56125;52.242;4.756;2023-08-06T00:30:12;2.28;;;2.00;;
69053;SDS011;56125;52.242;4.756;2023-08-06T00:35:13;2.70;;;1.92;;
69053;SDS011;56125;52.242;4.756;2023-08-06T00:40:14;3.40;;;2.47;;
69053;SDS011;56125;52.242;4.756;2023-08-06T00:45:15;2.47;;;1.92;;
69053;SDS011;56125;52.242;4.756;2023-08-06T00:50:16;2.65;;;2.00;;
69053;SDS011;56125;52.242;4.756;2023-08-06T00:55:17;2.50;;;2.05;;
69053;SDS011;56125;52.242;4.756;2023-08-06T01:00:19;3.22;;;2.40;;
69053;SDS011;56125;52.242;4.756;2023-08-06T01:05:22;2.42;;;2.10;;
69053;SDS011;56125;52.242;4.756;2023-08-06T01:10:37;2.63;;;1.92;;
69053;SDS011;56125;52.242;4.756;2023-08-06T01:16:00;3.40;;;2.13;;
69053;SDS011;56125;52.242;4.756;2023-08-06T01:21:02;2.53;;;2.20;;
69053;SDS011;56125;52.242;4.756;2023-08-06T01:26:05;3.60;;;2.40;;
69053;SDS011;56125;52.242;4.756;2023-08-06T01:31:27;2.88;;;2.30;;
69053;SDS011;56125;52.242;4.756;2023-08-06T01:36:35;2.47;;;2.03;;
69053;SDS011;56125;52.242;4.756;2023-08-06T01:41:36;2.97;;;2.10;;
69053;SDS011;56125;52.242;4.756;2023-08-06T01:46:37;2.92;;;2.25;;
69053;SDS011;56125;52.242;4.756;2023-08-06T01:51:38;2.95;;;2.40;;
69053;SDS011;56125;52.242;4.756;2023-08-06T01:56:39;4.90;;;2.40;;
69053;SDS011;56125;52.242;4.756;2023-08-06T02:01:40;3.03;;;2.60;;
69053;SDS011;56125;52.242;4.756;2023-08-06T02:06:41;2.72;;;2.22;;
69053;SDS011;56125;52.242;4.756;2023-08-06T02:11:42;2.90;;;2.30;;
69053;SDS011;56125;52.242;4.756;2023-08-06T02:16:43;2.35;;;1.95;;
69053;SDS011;56125;52.242;4.756;2023-08-06T02:21:44;2.90;;;2.20;;
69053;SDS011;56125;52.242;4.756;2023-08-06T02:26:45;3.70;;;2.60;;
69053;SDS011;56125;52.242;4.756;2023-08-06T02:31:47;2.70;;;2.33;;
69053;SDS011;56125;52.242;4.756;2023-08-06T02:36:48;3.28;;;2.50;;
69053;SDS011;56125;52.242;4.756;2023-08-06T02:41:49;2.80;;;2.40;;
69053;SDS011;56125;52.242;4.756;2023-08-06T02:46:50;3.15;;;2.35;;
69053;SDS011;56125;52.242;4.756;2023-08-06T02:51:51;3.05;;;2.40;;
69053;SDS011;56125;52.242;4.756;2023-08-06T02:56:52;3.45;;;2.38;;
69053;SDS011;56125;52.242;4.756;2023-08-06T03:01:53;3.15;;;2.67;;
69053;SDS011;56125;52.242;4.756;2023-08-06T03:06:54;2.80;;;2.40;;
69053;SDS011;56125;52.242;4.756;2023-08-06T03:11:55;3.42;;;2.28;;
69053;SDS011;56125;52.242;4.756;2023-08-06T03:16:56;2.57;;;2.17;;
69053;SDS011;56125;52.242;4.756;2023-08-06T03:21:57;2.90;;;2.25;;
69053;SDS011;56125;52.242;4.756;2023-08-06T03:26:58;1.98;;;1.60;;
69053;SDS011;56125;52.242;4.756;2023-08-06T03:31:59;2.47;;;1.80;;
69053;SDS011;56125;52.242;4.756;2023-08-06T03:37:00;2.58;;;1.50;;
69053;SDS011;56125;52.242;4.756;2023-08-06T03:42:01;1.48;;;1.20;;
69053;SDS011;56125;52.242;4.756;2023-08-06T03:47:02;2.25;;;1.33;;
69053;SDS011;56125;52.242;4.756;2023-08-06T03:52:04;1.63;;;1.17;;
69053;SDS011;56125;52.242;4.756;2023-08-06T03:57:05;1.95;;;1.50;;
69053;SDS011;56125;52.242;4.756;2023-08-06T04:02:06;2.00;;;1.20;;
69053;SDS011;56125;52.242;4.756;2023-08-06T04:07:07;2.60;;;1.30;;
69053;SDS011;56125;52.242;4.756;2023-08-06T04:12:08;1.88;;;1.13;;
69053;SDS011;56125;52.242;4.756;2023-08-06T04:17:09;2.42;;;1.17;;
69053;SDS011;56125;52.242;4.756;2023-08-06T04:22:10;2.67;;;1.27;;
69053;SDS011;56125;52.242;4.756;2023-08-06T04:27:12;3.15;;;1.38;;
69053;SDS011;56125;52.242;4.756;2023-08-06T04:32:14;2.28;;;1.50;;
69053;SDS011;56125;52.242;4.756;2023-08-06T04:37:15;2.40;;;1.30;;
69053;SDS011;56125;52.242;4.756;2023-08-06T04:42:16;2.00;;;1.38;;
69053;SDS011;56125;52.242;4.756;2023-08-06T04:47:17;1.65;;;1.15;;
69053;SDS011;56125;52.242;4.756;2023-08-06T04:52:18;1.30;;;1.20;;
69053;SDS011;56125;52.242;4.756;2023-08-06T04:57:19;1.60;;;1.30;;
69053;SDS011;56125;52.242;4.756;2023-08-06T05:02:21;1.45;;;1.23;;
69053;SDS011;56125;52.242;4.756;2023-08-06T05:07:22;1.40;;;1.10;;
69053;SDS011;56125;52.242;4.756;2023-08-06T05:12:23;1.63;;;1.40;;
69053;SDS011;56125;52.242;4.756;2023-08-06T05:17:24;2.30;;;1.40;;
69053;SDS011;56125;52.242;4.756;2023-08-06T05:22:25;1.42;;;1.20;;
69053;SDS011;56125;52.242;4.756;2023-08-06T05:27:26;2.55;;;1.23;;
69053;SDS011;56125;52.242;4.756;2023-08-06T05:32:27;1.85;;;1.60;;
69053;SDS011;56125;52.242;4.756;2023-08-06T05:37:28;3.17;;;1.20;;
69053;SDS011;56125;52.242;4.756;2023-08-06T05:42:29;1.52;;;1.33;;
69053;SDS011;56125;52.242;4.756;2023-08-06T05:47:30;1.98;;;1.20;;
69053;SDS011;56125;52.242;4.756;2023-08-06T05:52:31;1.48;;;1.20;;
69053;SDS011;56125;52.242;4.756;2023-08-06T05:57:32;1.80;;;1.10;;
69053;SDS011;56125;52.242;4.756;2023-08-06T06:02:33;1.40;;;1.30;;
69053;SDS011;56125;52.242;4.756;2023-08-06T06:07:34;1.75;;;1.20;;
69053;SDS011;56125;52.242;4.756;2023-08-06T06:12:35;2.60;;;1.52;;
69053;SDS011;56125;52.242;4.756;2023-08-06T06:17:38;1.52;;;1.30;;
69053;SDS011;56125;52.242;4.756;2023-08-06T06:22:39;2.35;;;1.55;;
69053;SDS011;56125;52.242;4.756;2023-08-06T06:27:40;1.75;;;1.48;;
69053;SDS011;56125;52.242;4.756;2023-08-06T06:32:41;2.05;;;1.48;;
69053;SDS011;56125;52.242;4.756;2023-08-06T06:37:42;1.88;;;1.50;;
69053;SDS011;56125;52.242;4.756;2023-08-06T06:42:43;2.75;;;1.50;;
69053;SDS011;56125;52.242;4.756;2023-08-06T06:47:44;3.25;;;1.40;;
69053;SDS011;56125;52.242;4.756;2023-08-06T06:52:45;1.67;;;1.30;;
69053;SDS011;56125;52.242;4.756;2023-08-06T06:57:46;1.95;;;1.33;;
69053;SDS011;56125;52.242;4.756;2023-08-06T07:02:47;2.67;;;1.73;;
69053;SDS011;56125;52.242;4.756;2023-08-06T07:07:48;2.50;;;1.60;;
69053;SDS011;56125;52.242;4.756;2023-08-06T07:12:49;2.60;;;1.45;;
69053;SDS011;56125;52.242;4.756;2023-08-06T07:17:50;2.88;;;1.33;;
69053;SDS011;56125;52.242;4.756;2023-08-06T07:22:51;2.42;;;1.20;;
69053;SDS011;56125;52.242;4.756;2023-08-06T07:27:52;2.80;;;1.30;;
69053;SDS011;56125;52.242;4.756;2023-08-06T07:32:53;5.38;;;1.50;;
69053;SDS011;56125;52.242;4.756;2023-08-06T07:37:54;3.22;;;1.50;;
69053;SDS011;56125;52.242;4.756;2023-08-06T07:42:55;1.80;;;1.30;;
69053;SDS011;56125;52.242;4.756;2023-08-06T07:47:56;2.65;;;1.40;;
69053;SDS011;56125;52.242;4.756;2023-08-06T07:52:57;2.60;;;1.20;;
69053;SDS011;56125;52.242;4.756;2023-08-06T07:57:58;2.50;;;1.45;;
69053;SDS011;56125;52.242;4.756;2023-08-06T08:02:59;2.22;;;1.20;;
69053;SDS011;56125;52.242;4.756;2023-08-06T08:08:00;2.95;;;1.48;;
69053;SDS011;56125;52.242;4.756;2023-08-06T08:13:02;3.05;;;1.67;;
69053;SDS011;56125;52.242;4.756;2023-08-06T08:18:03;2.65;;;1.45;;
69053;SDS011;56125;52.242;4.756;2023-08-06T08:23:04;2.72;;;1.38;;
69053;SDS011;56125;52.242;4.756;2023-08-06T08:28:05;4.30;;;1.60;;
69053;SDS011;56125;52.242;4.756;2023-08-06T08:33:06;1.75;;;1.20;;
69053;SDS011;56125;52.242;4.756;2023-08-06T08:38:08;2.00;;;1.40;;
69053;SDS011;56125;52.242;4.756;2023-08-06T08:43:09;3.88;;;1.55;;
69053;SDS011;56125;52.242;4.756;2023-08-06T08:48:11;3.67;;;1.30;;
69053;SDS011;56125;52.242;4.756;2023-08-06T08:53:15;2.33;;;1.23;;
69053;SDS011;56125;52.242;4.756;2023-08-06T08:58:17;1.98;;;1.00;;
69053;SDS011;56125;52.242;4.756;2023-08-06T09:03:18;4.95;;;1.30;;
69053;SDS011;56125;52.242;4.756;2023-08-06T09:08:20;2.85;;;1.10;;
69053;SDS011;56125;52.242;4.756;2023-08-06T09:13:25;3.88;;;1.55;;
69053;SDS011;56125;52.242;4.756;2023-08-06T09:18:27;2.05;;;0.98;;
69053;SDS011;56125;52.242;4.756;2023-08-06T09:23:30;2.25;;;1.27;;
69053;SDS011;56125;52.242;4.756;2023-08-06T09:28:38;1.48;;;1.20;;
69053;SDS011;56125;52.242;4.756;2023-08-06T09:33:40;3.20;;;1.30;;
69053;SDS011;56125;52.242;4.756;2023-08-06T09:38:41;2.55;;;1.13;;
69053;SDS011;56125;52.242;4.756;2023-08-06T09:43:43;2.33;;;1.00;;
69053;SDS011;56125;52.242;4.756;2023-08-06T09:48:45;5.47;;;1.10;;
69053;SDS011;56125;52.242;4.756;2023-08-06T09:53:47;1.80;;;1.13;;
69053;SDS011;56125;52.242;4.756;2023-08-06T09:58:49;4.03;;;0.98;;
69053;SDS011;56125;52.242;4.756;2023-08-06T10:03:51;2.97;;;1.02;;
69053;SDS011;56125;52.242;4.756;2023-08-06T10:08:53;3.33;;;1.13;;
69053;SDS011;56125;52.242;4.756;2023-08-06T10:14:02;6.72;;;1.20;;
69053;SDS011;56125;52.242;4.756;2023-08-06T10:19:10;3.20;;;1.20;;
69053;SDS011;56125;52.242;4.756;2023-08-06T10:24:14;2.92;;;1.30;;
69053;SDS011;56125;52.242;4.756;2023-08-06T10:29:34;4.82;;;1.45;;
69053;SDS011;56125;52.242;4.756;2023-08-06T10:39:57;3.53;;;1.15;;
69053;SDS011;56125;52.242;4.756;2023-08-06T10:45:14;3.92;;;1.25;;
69053;SDS011;56125;52.242;4.756;2023-08-06T10:50:16;5.35;;;1.33;;
69053;SDS011;56125;52.242;4.756;2023-08-06T10:55:25;3.08;;;1.40;;
69053;SDS011;56125;52.242;4.756;2023-08-06T11:00:27;3.40;;;1.40;;
69053;SDS011;56125;52.242;4.756;2023-08-06T11:05:28;3.63;;;1.48;;
69053;SDS011;56125;52.242;4.756;2023-08-06T11:10:32;3.50;;;1.13;;
69053;SDS011;56125;52.242;4.756;2023-08-06T11:15:34;3.15;;;1.20;;
69053;SDS011;56125;52.242;4.756;2023-08-06T11:20:35;4.28;;;1.20;;
69053;SDS011;56125;52.242;4.756;2023-08-06T11:25:37;3.95;;;1.38;;
69053;SDS011;56125;52.242;4.756;2023-08-06T11:30:45;4.25;;;1.40;;
69053;SDS011;56125;52.242;4.756;2023-08-06T11:35:46;3.10;;;1.10;;
69053;SDS011;56125;52.242;4.756;2023-08-06T11:40:49;3.55;;;1.00;;
69053;SDS011;56125;52.242;4.756;2023-08-06T11:45:51;1.67;;;1.00;;
69053;SDS011;56125;52.242;4.756;2023-08-06T11:50:55;1.63;;;0.95;;
69053;SDS011;56125;52.242;4.756;2023-08-06T11:55:57;4.10;;;1.00;;
69053;SDS011;56125;52.242;4.756;2023-08-06T12:00:58;1.67;;;1.00;;
69053;SDS011;56125;52.242;4.756;2023-08-06T12:05:59;1.92;;;1.23;;
69053;SDS011;56125;52.242;4.756;2023-08-06T12:11:00;3.00;;;0.90;;
69053;SDS011;56125;52.242;4.756;2023-08-06T12:16:01;3.78;;;0.90;;
69053;SDS011;56125;52.242;4.756;2023-08-06T12:21:02;1.73;;;0.70;;
69053;SDS011;56125;52.242;4.756;2023-08-06T12:26:03;1.15;;;1.00;;
69053;SDS011;56125;52.242;4.756;2023-08-06T12:31:04;5.47;;;1.42;;
69053;SDS011;56125;52.242;4.756;2023-08-06T12:36:05;3.95;;;1.27;;
69053;SDS011;56125;52.242;4.756;2023-08-06T12:41:06;2.75;;;1.05;;
69053;SDS011;56125;52.242;4.756;2023-08-06T12:46:07;1.98;;;1.10;;
69053;SDS011;56125;52.242;4.756;2023-08-06T12:51:08;3.97;;;1.13;;
69053;SDS011;56125;52.242;4.756;2023-08-06T12:56:09;2.83;;;1.20;;
69053;SDS011;56125;52.242;4.756;2023-08-06T13:01:10;2.35;;;0.90;;
69053;SDS011;56125;52.242;4.756;2023-08-06T13:06:11;2.35;;;0.93;;
69053;SDS011;56125;52.242;4.756;2023-08-06T13:11:13;2.30;;;0.75;;
69053;SDS011;56125;52.242;4.756;2023-08-06T13:16:14;1.60;;;0.98;;
69053;SDS011;56125;52.242;4.756;2023-08-06T13:21:15;3.90;;;0.90;;
69053;SDS011;56125;52.242;4.756;2023-08-06T13:26:16;2.35;;;1.00;;
69053;SDS011;56125;52.242;4.756;2023-08-06T13:31:18;1.20;;;0.73;;
69053;SDS011;56125;52.242;4.756;2023-08-06T13:36:19;1.45;;;0.90;;
69053;SDS011;56125;52.242;4.756;2023-08-06T13:41:20;2.30;;;1.00;;
69053;SDS011;56125;52.242;4.756;2023-08-06T13:46:21;1.88;;;0.80;;
69053;SDS011;56125;52.242;4.756;2023-08-06T13:51:22;7.13;;;0.80;;
69053;SDS011;56125;52.242;4.756;2023-08-06T13:56:23;1.48;;;0.70;;
69053;SDS011;56125;52.242;4.756;2023-08-06T14:01:24;3.70;;;0.93;;
69053;SDS011;56125;52.242;4.756;2023-08-06T14:06:25;1.05;;;0.80;;
69053;SDS011;56125;52.242;4.756;2023-08-06T14:11:26;3.90;;;0.70;;
69053;SDS011;56125;52.242;4.756;2023-08-06T14:16:27;1.95;;;0.85;;
69053;SDS011;56125;52.242;4.756;2023-08-06T14:21:28;1.20;;;0.60;;
69053;SDS011;56125;52.242;4.756;2023-08-06T14:26:29;2.80;;;0.73;;
69053;SDS011;56125;52.242;4.756;2023-08-06T14:31:30;2.88;;;0.70;;
69053;SDS011;56125;52.242;4.756;2023-08-06T14:36:32;4.53;;;1.10;;
69053;SDS011;56125;52.242;4.756;2023-08-06T14:41:33;3.50;;;0.60;;
69053;SDS011;56125;52.242;4.756;2023-08-06T14:46:34;2.03;;;0.80;;
69053;SDS011;56125;52.242;4.756;2023-08-06T14:51:35;3.28;;;0.75;;
69053;SDS011;56125;52.242;4.756;2023-08-06T14:56:36;2.65;;;0.80;;
69053;SDS011;56125;52.242;4.756;2023-08-06T15:01:37;2.47;;;0.55;;
69053;SDS011;56125;52.242;4.756;2023-08-06T15:06:38;3.50;;;1.35;;
69053;SDS011;56125;52.242;4.756;2023-08-06T15:11:39;4.28;;;0.70;;
69053;SDS011;56125;52.242;4.756;2023-08-06T15:16:40;5.10;;;0.70;;
69053;SDS011;56125;52.242;4.756;2023-08-06T15:21:41;2.38;;;0.77;;
69053;SDS011;56125;52.242;4.756;2023-08-06T15:26:44;4.40;;;0.90;;
69053;SDS011;56125;52.242;4.756;2023-08-06T15:31:45;3.42;;;0.70;;
69053;SDS011;56125;52.242;4.756;2023-08-06T15:36:46;4.25;;;0.88;;
69053;SDS011;56125;52.242;4.756;2023-08-06T15:41:47;5.57;;;0.70;;
69053;SDS011;56125;52.242;4.756;2023-08-06T15:46:48;6.45;;;1.10;;
69053;SDS011;56125;52.242;4.756;2023-08-06T15:51:49;5.85;;;0.90;;
69053;SDS011;56125;52.242;4.756;2023-08-06T15:56:50;4.18;;;1.10;;
69053;SDS011;56125;52.242;4.756;2023-08-06T16:01:51;7.20;;;1.25;;
69053;SDS011;56125;52.242;4.756;2023-08-06T16:06:53;3.28;;;1.40;;
69053;SDS011;56125;52.242;4.756;2023-08-06T16:11:54;4.93;;;0.98;;
69053;SDS011;56125;52.242;4.756;2023-08-06T16:16:55;5.47;;;0.90;;
69053;SDS011;56125;52.242;4.756;2023-08-06T16:21:56;5.63;;;1.02;;
69053;SDS011;56125;52.242;4.756;2023-08-06T16:26:57;6.30;;;1.10;;
69053;SDS011;56125;52.242;4.756;2023-08-06T16:31:58;6.13;;;1.08;;
69053;SDS011;56125;52.242;4.756;2023-08-06T16:37:00;2.97;;;1.02;;
69053;SDS011;56125;52.242;4.756;2023-08-06T16:42:01;4.25;;;0.95;;
69053;SDS011;56125;52.242;4.756;2023-08-06T16:47:02;3.08;;;1.00;;
69053;SDS011;56125;52.242;4.756;2023-08-06T16:52:04;4.05;;;0.90;;
69053;SDS011;56125;52.242;4.756;2023-08-06T16:57:05;8.93;;;1.35;;
69053;SDS011;56125;52.242;4.756;2023-08-06T17:03:06;3.78;;;0.98;;
69053;SDS011;56125;52.242;4.756;2023-08-06T17:08:07;2.03;;;0.80;;
69053;SDS011;56125;52.242;4.756;2023-08-06T17:13:08;4.72;;;0.90;;
69053;SDS011;56125;52.242;4.756;2023-08-06T17:18:09;2.83;;;1.00;;
69053;SDS011;56125;52.242;4.756;2023-08-06T17:23:11;3.97;;;0.68;;
69053;SDS011;56125;52.242;4.756;2023-08-06T17:28:13;1.80;;;0.80;;
69053;SDS011;56125;52.242;4.756;2023-08-06T17:33:14;3.00;;;0.98;;
69053;SDS011;56125;52.242;4.756;2023-08-06T17:38:17;5.47;;;1.27;;
69053;SDS011;56125;52.242;4.756;2023-08-06T17:43:18;5.55;;;1.00;;
69053;SDS011;56125;52.242;4.756;2023-08-06T17:48:19;3.03;;;0.90;;
69053;SDS011;56125;52.242;4.756;2023-08-06T17:53:20;1.98;;;0.80;;
69053;SDS011;56125;52.242;4.756;2023-08-06T17:58:23;0.93;;;0.60;;
69053;SDS011;56125;52.242;4.756;2023-08-06T18:03:24;1.40;;;0.75;;
69053;SDS011;56125;52.242;4.756;2023-08-06T18:08:25;2.42;;;0.73;;
69053;SDS011;56125;52.242;4.756;2023-08-06T18:13:26;2.15;;;0.80;;
69053;SDS011;56125;52.242;4.756;2023-08-06T18:18:27;3.00;;;0.90;;
69053;SDS011;56125;52.242;4.756;2023-08-06T18:23:28;4.05;;;1.17;;
69053;SDS011;56125;52.242;4.756;2023-08-06T18:28:29;3.10;;;0.90;;
69053;SDS011;56125;52.242;4.756;2023-08-06T18:33:30;4.00;;;0.82;;
69053;SDS011;56125;52.242;4.756;2023-08-06T18:38:31;2.47;;;0.90;;
69053;SDS011;56125;52.242;4.756;2023-08-06T18:43:33;3.08;;;0.93;;
69053;SDS011;56125;52.242;4.756;2023-08-06T18:48:34;5.05;;;1.05;;
69053;SDS011;56125;52.242;4.756;2023-08-06T18:53:35;3.80;;;0.57;;
69053;SDS011;56125;52.242;4.756;2023-08-06T18:58:36;2.85;;;0.90;;
69053;SDS011;56125;52.242;4.756;2023-08-06T19:03:37;3.50;;;0.75;;
69053;SDS011;56125;52.242;4.756;2023-08-06T19:08:38;1.73;;;0.50;;
69053;SDS011;56125;52.242;4.756;2023-08-06T19:13:39;1.23;;;0.65;;
69053;SDS011;56125;52.242;4.756;2023-08-06T19:18:40;3.00;;;0.90;;
69053;SDS011;56125;52.242;4.756;2023-08-06T19:23:41;3.30;;;0.73;;
69053;SDS011;56125;52.242;4.756;2023-08-06T19:28:42;4.70;;;0.93;;
69053;SDS011;56125;52.242;4.756;2023-08-06T19:33:43;2.95;;;0.70;;
69053;SDS011;56125;52.242;4.756;2023-08-06T19:38:44;3.63;;;0.90;;
69053;SDS011;56125;52.242;4.756;2023-08-06T19:43:45;2.63;;;0.82;;
69053;SDS011;56125;52.242;4.756;2023-08-06T19:48:46;1.40;;;0.95;;
69053;SDS011;56125;52.242;4.756;2023-08-06T19:53:47;3.30;;;0.80;;
69053;SDS011;56125;52.242;4.756;2023-08-06T19:58:48;2.33;;;0.88;;
69053;SDS011;56125;52.242;4.756;2023-08-06T20:03:49;3.70;;;1.08;;
69053;SDS011;56125;52.242;4.756;2023-08-06T20:08:50;3.33;;;0.80;;
69053;SDS011;56125;52.242;4.756;2023-08-06T20:13:52;3.00;;;0.77;;
69053;SDS011;56125;52.242;4.756;2023-08-06T20:18:53;4.53;;;0.88;;
69053;SDS011;56125;52.242;4.756;2023-08-06T20:23:54;2.83;;;0.73;;
69053;SDS011;56125;52.242;4.756;2023-08-06T20:28:55;2.58;;;0.80;;
69053;SDS011;56125;52.242;4.756;2023-08-06T20:33:56;2.60;;;0.70;;
69053;SDS011;56125;52.242;4.756;2023-08-06T20:38:57;1.85;;;0.70;;
69053;SDS011;56125;52.242;4.756;2023-08-06T20:43:58;2.63;;;0.80;;
69053;SDS011;56125;52.242;4.756;2023-08-06T20:48:59;3.40;;;0.75;;
69053;SDS011;56125;52.242;4.756;2023-08-06T20:54:00;2.50;;;0.65;;
69053;SDS011;56125;52.242;4.756;2023-08-06T20:59:01;2.10;;;0.80;;
69053;SDS011;56125;52.242;4.756;2023-08-06T21:04:03;2.28;;;0.80;;
69053;SDS011;56125;52.242;4.756;2023-08-06T21:09:04;2.42;;;0.85;;
69053;SDS011;56125;52.242;4.756;2023-08-06T21:14:07;2.80;;;0.70;;
69053;SDS011;56125;52.242;4.756;2023-08-06T21:19:08;2.47;;;0.70;;
69053;SDS011;56125;52.242;4.756;2023-08-06T21:24:09;2.22;;;0.80;;
69053;SDS011;56125;52.242;4.756;2023-08-06T21:29:10;3.35;;;0.80;;
69053;SDS011;56125;52.242;4.756;2023-08-06T21:34:11;2.60;;;0.88;;
69053;SDS011;56125;52.242;4.756;2023-08-06T21:39:12;3.97;;;0.90;;
69053;SDS011;56125;52.242;4.756;2023-08-06T21:44:13;2.42;;;0.80;;
69053;SDS011;56125;52.242;4.756;2023-08-06T21:49:14;3.13;;;0.90;;
69053;SDS011;56125;52.242;4.756;2023-08-06T21:54:15;3.58;;;0.95;;
69053;SDS011;56125;52.242;4.756;2023-08-06T21:59:17;4.47;;;1.10;;
69053;SDS011;56125;52.242;4.756;2023-08-06T22:04:18;2.13;;;1.00;;
69053;SDS011;56125;52.242;4.756;2023-08-06T22:09:19;2.88;;;0.70;;
69053;SDS011;56125;52.242;4.756;2023-08-06T22:14:20;1.48;;;0.65;;
69053;SDS011;56125;52.242;4.756;2023-08-06T22:19:21;3.60;;;0.88;;
69053;SDS011;56125;52.242;4.756;2023-08-06T22:24:22;2.50;;;0.70;;
69053;SDS011;56125;52.242;4.756;2023-08-06T22:29:23;3.63;;;1.05;;
69053;SDS011;56125;52.242;4.756;2023-08-06T22:34:24;2.42;;;0.80;;
69053;SDS011;56125;52.242;4.756;2023-08-06T22:39:25;2.20;;;1.00;;
69053;SDS011;56125;52.242;4.756;2023-08-06T22:44:26;3.05;;;0.90;;
69053;SDS011;56125;52.242;4.756;2023-08-06T22:49:27;4.53;;;1.00;;
69053;SDS011;56125;52.242;4.756;2023-08-06T22:54:28;2.40;;;0.90;;
69053;SDS011;56125;52.242;4.756;2023-08-06T22:59:29;2.67;;;0.90;;
69053;SDS011;56125;52.242;4.756;2023-08-06T23:04:30;2.38;;;0.85;;
69053;SDS011;56125;52.242;4.756;2023-08-06T23:09:31;3.42;;;0.90;;
69053;SDS011;56125;52.242;4.756;2023-08-06T23:14:32;1.17;;;0.80;;
69053;SDS011;56125;52.242;4.756;2023-08-06T23:19:33;5.22;;;1.00;;
69053;SDS011;56125;52.242;4.756;2023-08-06T23:24:34;2.30;;;0.80;;
69053;SDS011;56125;52.242;4.756;2023-08-06T23:29:35;3.50;;;1.08;;
69053;SDS011;56125;52.242;4.756;2023-08-06T23:34:36;5.15;;;1.02;;
69053;SDS011;56125;52.242;4.756;2023-08-06T23:39:37;2.33;;;1.20;;
69053;SDS011;56125;52.242;4.756;2023-08-06T23:44:38;2.55;;;0.85;;
69053;SDS011;56125;52.242;4.756;2023-08-06T23:49:39;3.40;;;1.00;;
69053;SDS011;56125;52.242;4.756;2023-08-06T23:54:40;2.65;;;1.10;;
69053;SDS011;56125;52.242;4.756;2023-08-06T23:59:41;2.47;;;1.08;;
